Airfield :
LOGIN :

Register | Disclaimer

   EN    FR    IT 

 










Legend :    VFR   Marginal VFR   IFR   Intensive IFR   Very Intensive IFR
Visi :
Ceiling :
>= 8 km
>= 3000ft
5 to 8 km
1000 to 3000 ft
1500m to 5 km
500 to 1000 ft
800 to 1500m
200 to 500 ft
< 800m
< 200 ft
Symbols :   Thunderstorms  Fog  Heavy snow  Heavy precipitations  Wind > 20 kt
SIGMETs :     Misc.  Thunderstorms  Icing  Turbulence  Mountain Waves  Volcanic Ashes






- Airport Elevation : 1411 ft
- IATA code : GVA


LSGG - Genève Cointrin

CURRENT METAR :
  • 250750Z AUTO 09006KT 050V130 CAVOK 21/14 Q1013 NOSIG

EXPIRED METARs :
  • 250720Z AUTO VRB03KT CAVOK 22/14 Q1013 NOSIG
  • 250650Z AUTO VRB03KT CAVOK 21/15 Q1013 NOSIG
  • 250620Z AUTO VRB03KT CAVOK 21/16 Q1013 NOSIG
  • 250550Z AUTO VRB01KT CAVOK 20/16 Q1013 NOSIG
  • 250520Z AUTO VRB01KT CAVOK 19/15 Q1013 NOSIG
  • 250450Z AUTO VRB01KT CAVOK 17/14 Q1013 NOSIG
  • 250420Z AUTO VRB01KT CAVOK 16/14 Q1013 NOSIG
  • 250350Z AUTO VRB02KT CAVOK 15/14 Q1013 NOSIG
  • 250320Z AUTO VRB01KT 9000 4200NE NCD 16/14 Q1013 NOSIG

TAF TAF LSGG
Valid from the 25 at 06:00 until the 26 at 12:00 UTC


250525Z 2506/2612 VRB02KT CAVOK TX27/2515Z TN19/2506Z TN17/2605Z
BECMG 2508/2511 04008KT 9999 SCT050
PROB40
TEMPO 2514/2519 16015G25KT TSRA SCT040CB
BECMG 2519/2521 VRB02KT
ATIS : +41 22 417 40 81



MET'MAP, your aeronautical weather chart ! - Copyright ORBIFLY December 2007 - Disclaimer

ORBIFLY MET'MAP TEAM :

Programming & Development : Alexandra Zaïnal
Original concept : Baudouin d'Aumeries
Technical & hardware support : Manuel Goepfert
Assistance : Marc-Olivier Méhu




SOURCES & CREDITS :

   NOAA